Accueil
METAR-TAF:

METAR-TAF

Aéroports :

Saint-Moritz, Suisse

Aéroport de Samedan-Engadin

latitude: 46-32-03N, longitude: 9-53-03E, altitude: 1707 m

Observation

Le bulletin a été fait il y a 19 minutes, à 18:20 UTC
Vent 5 kt de sud/sud-ouest
Température 5°C
Humidité 65%
Pression 1027 hPa
Visibilité 10 km ou plus
pas de nuages en-dessous de 1500 mètres et pas de cumulonimbus.

METAR: LSZS 171820Z AUTO 20005KT CAVOK 05/M01 Q1027

Heure: 20:39 (18:39 UTC)

Prévision

Le bulletin a été fait il y a 4 heures et 14 minutes, à 14:25 UTC
Prévision valable du 17 à 15 UTC au 17 à 24 UTC
Vent 12 kt de sud-ouest
Visibilité 10 km ou plus
pas de nuages en-dessous de 1500 mètres et pas de cumulonimbus.
Evoluant progressivement
du 17 à 15 UTC au 17 à 17 UTC
Vent 3 kt de direction variable

TAF: LSZS 171425Z 1715/1724 23012KT CAVOK TX16/1715Z BECMG 1715/1717 VRB03KT

Observations et prévisions météorologiques de plus de 4000 aéroports (messages METAR et TAF).

Les stations disponibles sont représentées par des disques jaunes et rouges sur la carte.

Passer la souris dessus pour voir le nom de la station.

Cliquer dessus pour voir les observations et prévisions météorologiques.

Pour changer de carte: cliquez sur les boutons verts avec une croix noire pour zoomer, sur le bouton vert avec un tiret pour effectuer un zoom arrière, ou sur les flèches vertes pour les cartes adjacentes.


METAR-TAF: